Main page
METAR-TAF:

METAR-TAF

Airports :

Tongatapu, Tonga

Fuaʻamotu International Airport

latitude: 21-14S, longitude: 175-09W, elevation: 38 m

Current weather observation

The report was made 39 minutes ago, at 15:00 UTC
Calm wind
Temperature 25°C
Humidity 89%
Pressure 1008 hPa
Visibility 10 km or more
Few clouds at a height of 1800 ft

METAR: NFTF 231500Z 00000KT 9999 FEW018 25/23 Q1008

Time: 04:39 (15:39 UTC)

Forecast

The report was made 4 hours and 35 minutes ago, at 11:04 UTC
Forecast valid from 23 at 12 UTC to 24 at 12 UTC
Wind 9 kt from the East/Southeast
Visibility 10 km or more
Few clouds at a height of 1000 ft
Scattered clouds at a height of 1700 ft

TAF: NFTF 231104Z 2312/2412 12009KT 9999 FEW010 SCT017

Weather observations and forecasts of more than 4000 airports (METAR and TAF reports).

The available stations are represented by yellow and red dots on the map.

Hover mouse over dot to see the name of the station.

Then click to see weather observations and forecasts.

To change the map : click on the green buttons with a black cross to zoom in, on the green button with a dash to zoom out, or on the green arrows for adjacent maps.


METAR-TAF: